Urb Montanez, Puerto Rico
Current Conditions -  °F | °C
As of 4:56 PM on Thursday 23 Oct 2014 (Local Time) from TJSJ Reporting Station
Scattered Clouds Scattered Clouds  
Wind Chill: 86°   Ceiling: Unl
Heat Index: 97°   Visibility: 10mi
Dew Point: 77°   Wind: 13mph
Humidity: 74%   Direction: 70°ENE
Pressure: 29.87"   Gusts: NA
Location:  18.1783°N, 66.1111°W
Report Text: TJSJ 232056Z 07011KT 10SM FEW039 SCT150 30/25 A2987 RMK AO2 SLP114 VCSH SE T03000250 55002
Loading
Personal Weather Stations






























Interactive Weather Map
Tropical Storm Tracking
New forecast layout! Learn more

10-Day Weather Forecast

Advertisements
Track Severe Weather on mobile